Terminal Aerodrome Forecast
Issued by NWS

Home | Current Version | Previous Version | Text Only | Print | Product List | Glossary On
Versions: 1 2 3 4 5 6 7 8 9 10 11 12 13 14 15 16 17
000
FTUS43 KMQT 262336
TAFSAW
TAF
KSAW 262336Z 2700/2724 18007KT P6SM VCSH BKN060
     FM270700 20004KT P6SM BKN050
     FM271300 22005KT P6SM SCT040
     FM271800 23006KT P6SM VCSH BKN050
     FM272100 05005KT P6SM VCSH BKN060=

USA.gov is the U.S. government's official web portal to all federal, state and local government web resources and services.